sensor_id;sensor_type;location;lat;lon;timestamp;P1;durP1;ratioP1;P2;durP2;ratioP2
75009;SDS011;63564;46.840;18.336;2022-10-13T00:00:57;26.23;;;13.40;;
75009;SDS011;63564;46.840;18.336;2022-10-13T00:03:57;30.67;;;15.47;;
75009;SDS011;63564;46.840;18.336;2022-10-13T00:06:58;35.03;;;18.43;;
75009;SDS011;63564;46.840;18.336;2022-10-13T00:09:58;41.00;;;19.30;;
75009;SDS011;63564;46.840;18.336;2022-10-13T00:12:58;46.25;;;24.73;;
75009;SDS011;63564;46.840;18.336;2022-10-13T00:16:00;40.87;;;21.63;;
75009;SDS011;63564;46.840;18.336;2022-10-13T00:19:01;37.37;;;19.83;;
75009;SDS011;63564;46.840;18.336;2022-10-13T00:22:01;42.75;;;20.77;;
75009;SDS011;63564;46.840;18.336;2022-10-13T00:25:02;44.43;;;23.73;;
75009;SDS011;63564;46.840;18.336;2022-10-13T00:28:03;50.63;;;24.10;;
75009;SDS011;63564;46.840;18.336;2022-10-13T00:31:03;46.67;;;24.70;;
75009;SDS011;63564;46.840;18.336;2022-10-13T00:34:13;38.80;;;18.67;;
75009;SDS011;63564;46.840;18.336;2022-10-13T00:37:14;35.28;;;18.95;;
75009;SDS011;63564;46.840;18.336;2022-10-13T00:40:15;35.67;;;18.77;;
75009;SDS011;63564;46.840;18.336;2022-10-13T00:43:23;37.80;;;19.27;;
75009;SDS011;63564;46.840;18.336;2022-10-13T00:46:27;33.00;;;18.27;;
75009;SDS011;63564;46.840;18.336;2022-10-13T00:49:29;39.67;;;19.27;;
75009;SDS011;63564;46.840;18.336;2022-10-13T00:52:30;36.30;;;17.73;;
75009;SDS011;63564;46.840;18.336;2022-10-13T00:55:32;37.17;;;19.33;;
75009;SDS011;63564;46.840;18.336;2022-10-13T00:58:35;43.28;;;20.23;;
75009;SDS011;63564;46.840;18.336;2022-10-13T01:01:38;44.63;;;21.17;;
75009;SDS011;63564;46.840;18.336;2022-10-13T01:04:39;44.97;;;22.65;;
75009;SDS011;63564;46.840;18.336;2022-10-13T01:07:44;47.53;;;23.60;;
75009;SDS011;63564;46.840;18.336;2022-10-13T01:10:52;60.17;;;28.90;;
75009;SDS011;63564;46.840;18.336;2022-10-13T01:30:36;41.33;;;20.33;;
75009;SDS011;63564;46.840;18.336;2022-10-13T01:33:55;42.95;;;21.00;;
75009;SDS011;63564;46.840;18.336;2022-10-13T01:37:02;44.92;;;21.15;;
75009;SDS011;63564;46.840;18.336;2022-10-13T01:43:24;54.40;;;27.37;;
75009;SDS011;63564;46.840;18.336;2022-10-13T01:46:36;41.40;;;22.15;;
75009;SDS011;63564;46.840;18.336;2022-10-13T01:49:37;41.00;;;21.52;;
75009;SDS011;63564;46.840;18.336;2022-10-13T01:52:38;48.37;;;23.27;;
75009;SDS011;63564;46.840;18.336;2022-10-13T01:55:52;52.28;;;26.15;;
75009;SDS011;63564;46.840;18.336;2022-10-13T01:58:58;59.92;;;26.30;;
75009;SDS011;63564;46.840;18.336;2022-10-13T02:02:14;59.78;;;29.80;;
75009;SDS011;63564;46.840;18.336;2022-10-13T02:12:09;51.90;;;24.05;;
75009;SDS011;63564;46.840;18.336;2022-10-13T02:15:16;48.95;;;24.10;;
75009;SDS011;63564;46.840;18.336;2022-10-13T02:18:22;44.45;;;22.50;;
75009;SDS011;63564;46.840;18.336;2022-10-13T02:21:26;51.97;;;25.55;;
75009;SDS011;63564;46.840;18.336;2022-10-13T02:24:27;43.83;;;22.27;;
75009;SDS011;63564;46.840;18.336;2022-10-13T02:27:28;53.40;;;25.52;;
75009;SDS011;63564;46.840;18.336;2022-10-13T02:30:29;57.03;;;25.77;;
75009;SDS011;63564;46.840;18.336;2022-10-13T02:33:30;53.72;;;25.45;;
75009;SDS011;63564;46.840;18.336;2022-10-13T02:36:31;52.83;;;25.87;;
75009;SDS011;63564;46.840;18.336;2022-10-13T02:39:32;46.15;;;23.42;;
75009;SDS011;63564;46.840;18.336;2022-10-13T02:42:33;51.03;;;24.17;;
75009;SDS011;63564;46.840;18.336;2022-10-13T02:45:33;47.90;;;23.70;;
75009;SDS011;63564;46.840;18.336;2022-10-13T02:48:33;52.45;;;23.73;;
75009;SDS011;63564;46.840;18.336;2022-10-13T02:51:34;50.28;;;23.60;;
75009;SDS011;63564;46.840;18.336;2022-10-13T02:54:34;42.67;;;21.20;;
75009;SDS011;63564;46.840;18.336;2022-10-13T02:57:34;42.37;;;20.50;;
75009;SDS011;63564;46.840;18.336;2022-10-13T03:00:35;39.20;;;19.37;;
75009;SDS011;63564;46.840;18.336;2022-10-13T03:03:38;41.70;;;20.27;;
75009;SDS011;63564;46.840;18.336;2022-10-13T03:06:39;46.93;;;22.23;;
75009;SDS011;63564;46.840;18.336;2022-10-13T03:09:39;44.53;;;21.30;;
75009;SDS011;63564;46.840;18.336;2022-10-13T03:12:40;49.40;;;24.52;;
75009;SDS011;63564;46.840;18.336;2022-10-13T03:15:40;50.67;;;23.93;;
75009;SDS011;63564;46.840;18.336;2022-10-13T03:18:40;48.97;;;24.20;;
75009;SDS011;63564;46.840;18.336;2022-10-13T03:21:41;44.37;;;22.00;;
75009;SDS011;63564;46.840;18.336;2022-10-13T03:24:41;45.30;;;22.13;;
75009;SDS011;63564;46.840;18.336;2022-10-13T03:27:42;45.80;;;22.27;;
75009;SDS011;63564;46.840;18.336;2022-10-13T03:30:42;44.28;;;21.33;;
75009;SDS011;63564;46.840;18.336;2022-10-13T03:33:42;47.93;;;22.43;;
75009;SDS011;63564;46.840;18.336;2022-10-13T03:36:43;48.73;;;22.13;;
75009;SDS011;63564;46.840;18.336;2022-10-13T03:39:43;51.83;;;23.50;;
75009;SDS011;63564;46.840;18.336;2022-10-13T03:42:44;52.70;;;23.85;;
75009;SDS011;63564;46.840;18.336;2022-10-13T03:45:52;49.33;;;23.50;;
75009;SDS011;63564;46.840;18.336;2022-10-13T03:48:54;55.57;;;23.90;;
75009;SDS011;63564;46.840;18.336;2022-10-13T03:51:54;51.13;;;23.08;;
75009;SDS011;63564;46.840;18.336;2022-10-13T03:54:55;55.03;;;25.60;;
75009;SDS011;63564;46.840;18.336;2022-10-13T03:57:55;53.47;;;24.53;;
75009;SDS011;63564;46.840;18.336;2022-10-13T04:00:55;53.00;;;24.23;;
75009;SDS011;63564;46.840;18.336;2022-10-13T04:03:57;53.20;;;25.15;;
75009;SDS011;63564;46.840;18.336;2022-10-13T04:06:58;56.40;;;24.25;;
75009;SDS011;63564;46.840;18.336;2022-10-13T04:09:58;49.87;;;24.77;;
75009;SDS011;63564;46.840;18.336;2022-10-13T04:12:59;51.63;;;24.97;;
75009;SDS011;63564;46.840;18.336;2022-10-13T04:16:03;53.50;;;23.43;;
75009;SDS011;63564;46.840;18.336;2022-10-13T04:19:05;52.28;;;25.38;;
75009;SDS011;63564;46.840;18.336;2022-10-13T04:22:05;57.07;;;24.40;;
75009;SDS011;63564;46.840;18.336;2022-10-13T04:25:06;56.67;;;26.87;;
75009;SDS011;63564;46.840;18.336;2022-10-13T04:28:07;55.88;;;25.40;;
75009;SDS011;63564;46.840;18.336;2022-10-13T04:31:07;57.97;;;26.00;;
75009;SDS011;63564;46.840;18.336;2022-10-13T04:34:07;55.80;;;25.37;;
75009;SDS011;63564;46.840;18.336;2022-10-13T04:37:08;57.10;;;26.40;;
75009;SDS011;63564;46.840;18.336;2022-10-13T04:40:09;51.63;;;25.25;;
75009;SDS011;63564;46.840;18.336;2022-10-13T04:43:09;52.40;;;24.53;;
75009;SDS011;63564;46.840;18.336;2022-10-13T04:46:13;53.83;;;24.87;;
75009;SDS011;63564;46.840;18.336;2022-10-13T04:49:16;53.35;;;24.88;;
75009;SDS011;63564;46.840;18.336;2022-10-13T04:52:17;50.63;;;24.57;;
75009;SDS011;63564;46.840;18.336;2022-10-13T04:55:17;48.80;;;24.20;;
75009;SDS011;63564;46.840;18.336;2022-10-13T04:58:18;47.60;;;22.97;;
75009;SDS011;63564;46.840;18.336;2022-10-13T05:01:20;48.60;;;23.03;;
75009;SDS011;63564;46.840;18.336;2022-10-13T05:04:22;57.03;;;25.08;;
75009;SDS011;63564;46.840;18.336;2022-10-13T05:07:23;55.53;;;25.57;;
75009;SDS011;63564;46.840;18.336;2022-10-13T05:10:23;49.95;;;23.55;;
75009;SDS011;63564;46.840;18.336;2022-10-13T05:13:23;63.20;;;26.73;;
75009;SDS011;63564;46.840;18.336;2022-10-13T05:16:24;62.97;;;26.97;;
75009;SDS011;63564;46.840;18.336;2022-10-13T05:19:25;56.13;;;25.20;;
75009;SDS011;63564;46.840;18.336;2022-10-13T05:22:26;68.70;;;26.93;;
75009;SDS011;63564;46.840;18.336;2022-10-13T05:25:27;62.97;;;27.30;;
75009;SDS011;63564;46.840;18.336;2022-10-13T05:28:28;59.20;;;25.97;;
75009;SDS011;63564;46.840;18.336;2022-10-13T05:31:29;49.23;;;23.73;;
75009;SDS011;63564;46.840;18.336;2022-10-13T05:34:30;52.42;;;24.40;;
75009;SDS011;63564;46.840;18.336;2022-10-13T05:37:31;57.50;;;26.27;;
75009;SDS011;63564;46.840;18.336;2022-10-13T05:40:32;57.50;;;26.17;;
75009;SDS011;63564;46.840;18.336;2022-10-13T05:43:32;60.07;;;25.93;;
75009;SDS011;63564;46.840;18.336;2022-10-13T05:46:33;56.05;;;24.92;;
75009;SDS011;63564;46.840;18.336;2022-10-13T05:49:34;49.57;;;24.43;;
75009;SDS011;63564;46.840;18.336;2022-10-13T05:52:38;53.92;;;25.38;;
75009;SDS011;63564;46.840;18.336;2022-10-13T05:55:39;53.88;;;25.38;;
75009;SDS011;63564;46.840;18.336;2022-10-13T05:58:46;58.67;;;27.23;;
75009;SDS011;63564;46.840;18.336;2022-10-13T06:01:50;60.95;;;27.00;;
75009;SDS011;63564;46.840;18.336;2022-10-13T06:04:52;126.57;;;36.50;;
75009;SDS011;63564;46.840;18.336;2022-10-13T06:07:56;71.13;;;28.60;;
75009;SDS011;63564;46.840;18.336;2022-10-13T06:10:57;51.05;;;24.67;;
75009;SDS011;63564;46.840;18.336;2022-10-13T06:13:57;54.77;;;26.43;;
75009;SDS011;63564;46.840;18.336;2022-10-13T06:16:57;54.47;;;24.67;;
75009;SDS011;63564;46.840;18.336;2022-10-13T06:19:58;50.08;;;23.67;;
75009;SDS011;63564;46.840;18.336;2022-10-13T06:22:59;51.38;;;24.80;;
75009;SDS011;63564;46.840;18.336;2022-10-13T06:25:59;49.00;;;22.87;;
75009;SDS011;63564;46.840;18.336;2022-10-13T06:28:59;43.60;;;21.17;;
75009;SDS011;63564;46.840;18.336;2022-10-13T06:32:00;46.10;;;21.92;;
75009;SDS011;63564;46.840;18.336;2022-10-13T06:35:00;44.75;;;22.58;;
75009;SDS011;63564;46.840;18.336;2022-10-13T06:38:00;42.00;;;22.37;;
75009;SDS011;63564;46.840;18.336;2022-10-13T06:41:01;44.43;;;21.73;;
75009;SDS011;63564;46.840;18.336;2022-10-13T06:44:03;47.53;;;21.63;;
75009;SDS011;63564;46.840;18.336;2022-10-13T06:47:04;39.30;;;21.00;;
75009;SDS011;63564;46.840;18.336;2022-10-13T06:50:04;46.67;;;20.83;;
75009;SDS011;63564;46.840;18.336;2022-10-13T06:53:05;41.40;;;21.43;;
75009;SDS011;63564;46.840;18.336;2022-10-13T06:56:22;41.77;;;20.70;;
75009;SDS011;63564;46.840;18.336;2022-10-13T06:59:23;39.58;;;20.63;;
75009;SDS011;63564;46.840;18.336;2022-10-13T07:02:25;38.42;;;19.67;;
75009;SDS011;63564;46.840;18.336;2022-10-13T07:05:26;40.22;;;20.20;;
75009;SDS011;63564;46.840;18.336;2022-10-13T07:08:26;38.37;;;19.67;;
75009;SDS011;63564;46.840;18.336;2022-10-13T07:11:26;37.30;;;20.23;;
75009;SDS011;63564;46.840;18.336;2022-10-13T07:14:27;38.07;;;18.87;;
75009;SDS011;63564;46.840;18.336;2022-10-13T07:17:27;48.10;;;26.93;;
75009;SDS011;63564;46.840;18.336;2022-10-13T07:20:27;36.70;;;18.17;;
75009;SDS011;63564;46.840;18.336;2022-10-13T07:23:28;30.90;;;15.77;;
75009;SDS011;63564;46.840;18.336;2022-10-13T07:26:29;37.00;;;20.88;;
75009;SDS011;63564;46.840;18.336;2022-10-13T07:29:31;35.65;;;21.77;;
75009;SDS011;63564;46.840;18.336;2022-10-13T07:32:31;32.73;;;17.00;;
75009;SDS011;63564;46.840;18.336;2022-10-13T07:35:32;29.37;;;16.87;;
75009;SDS011;63564;46.840;18.336;2022-10-13T07:38:32;28.33;;;16.27;;
75009;SDS011;63564;46.840;18.336;2022-10-13T07:41:33;27.63;;;15.20;;
75009;SDS011;63564;46.840;18.336;2022-10-13T07:44:34;27.45;;;14.98;;
75009;SDS011;63564;46.840;18.336;2022-10-13T07:47:34;23.37;;;12.50;;
75009;SDS011;63564;46.840;18.336;2022-10-13T07:50:35;23.47;;;13.27;;
75009;SDS011;63564;46.840;18.336;2022-10-13T07:53:36;20.98;;;11.23;;
75009;SDS011;63564;46.840;18.336;2022-10-13T07:56:37;20.65;;;10.57;;
75009;SDS011;63564;46.840;18.336;2022-10-13T07:59:37;21.50;;;11.37;;
75009;SDS011;63564;46.840;18.336;2022-10-13T08:02:37;19.07;;;10.97;;
75009;SDS011;63564;46.840;18.336;2022-10-13T08:05:39;20.08;;;11.15;;
75009;SDS011;63564;46.840;18.336;2022-10-13T08:08:39;25.77;;;10.73;;
75009;SDS011;63564;46.840;18.336;2022-10-13T08:11:40;18.77;;;9.43;;
75009;SDS011;63564;46.840;18.336;2022-10-13T08:14:40;18.23;;;9.03;;
75009;SDS011;63564;46.840;18.336;2022-10-13T08:17:41;16.02;;;7.72;;
75009;SDS011;63564;46.840;18.336;2022-10-13T08:20:42;15.70;;;8.37;;
75009;SDS011;63564;46.840;18.336;2022-10-13T08:23:44;14.93;;;8.00;;
75009;SDS011;63564;46.840;18.336;2022-10-13T08:26:45;11.77;;;6.63;;
75009;SDS011;63564;46.840;18.336;2022-10-13T08:29:46;11.95;;;6.18;;
75009;SDS011;63564;46.840;18.336;2022-10-13T08:32:46;14.43;;;7.00;;
75009;SDS011;63564;46.840;18.336;2022-10-13T08:35:46;11.80;;;6.60;;
75009;SDS011;63564;46.840;18.336;2022-10-13T08:38:47;11.67;;;6.43;;
75009;SDS011;63564;46.840;18.336;2022-10-13T08:41:47;14.10;;;6.57;;
75009;SDS011;63564;46.840;18.336;2022-10-13T08:44:50;11.93;;;6.80;;
75009;SDS011;63564;46.840;18.336;2022-10-13T08:47:59;14.68;;;7.13;;
75009;SDS011;63564;46.840;18.336;2022-10-13T08:51:05;12.60;;;6.40;;
75009;SDS011;63564;46.840;18.336;2022-10-13T08:54:06;12.67;;;6.10;;
75009;SDS011;63564;46.840;18.336;2022-10-13T08:57:07;12.43;;;5.93;;
75009;SDS011;63564;46.840;18.336;2022-10-13T09:00:09;11.52;;;5.95;;
75009;SDS011;63564;46.840;18.336;2022-10-13T09:06:26;10.77;;;5.80;;
75009;SDS011;63564;46.840;18.336;2022-10-13T09:09:31;9.80;;;5.68;;
75009;SDS011;63564;46.840;18.336;2022-10-13T09:12:31;11.70;;;5.30;;
75009;SDS011;63564;46.840;18.336;2022-10-13T09:15:41;11.60;;;5.45;;
75009;SDS011;63564;46.840;18.336;2022-10-13T09:18:43;9.55;;;5.60;;
75009;SDS011;63564;46.840;18.336;2022-10-13T09:21:43;10.93;;;5.80;;
75009;SDS011;63564;46.840;18.336;2022-10-13T09:24:43;11.53;;;5.73;;
75009;SDS011;63564;46.840;18.336;2022-10-13T09:31:00;12.88;;;6.57;;
75009;SDS011;63564;46.840;18.336;2022-10-13T09:34:43;12.43;;;6.80;;
75009;SDS011;63564;46.840;18.336;2022-10-13T09:37:25;13.95;;;6.57;;
75009;SDS011;63564;46.840;18.336;2022-10-13T09:40:25;14.37;;;6.90;;
75009;SDS011;63564;46.840;18.336;2022-10-13T09:46:35;15.50;;;7.13;;
75009;SDS011;63564;46.840;18.336;2022-10-13T09:49:39;14.50;;;7.00;;
75009;SDS011;63564;46.840;18.336;2022-10-13T09:52:41;16.92;;;7.35;;
75009;SDS011;63564;46.840;18.336;2022-10-13T09:55:44;12.82;;;7.47;;
75009;SDS011;63564;46.840;18.336;2022-10-13T09:58:54;12.55;;;6.90;;
75009;SDS011;63564;46.840;18.336;2022-10-13T10:02:14;11.93;;;6.53;;
75009;SDS011;63564;46.840;18.336;2022-10-13T10:05:23;13.63;;;7.13;;
75009;SDS011;63564;46.840;18.336;2022-10-13T10:08:45;12.10;;;6.70;;
75009;SDS011;63564;46.840;18.336;2022-10-13T10:11:52;14.25;;;7.35;;
75009;SDS011;63564;46.840;18.336;2022-10-13T10:14:57;13.48;;;7.20;;
75009;SDS011;63564;46.840;18.336;2022-10-13T10:17:59;16.50;;;7.50;;
75009;SDS011;63564;46.840;18.336;2022-10-13T10:21:11;13.73;;;8.40;;
75009;SDS011;63564;46.840;18.336;2022-10-13T10:27:42;15.18;;;8.35;;
75009;SDS011;63564;46.840;18.336;2022-10-13T10:30:53;14.38;;;8.13;;
75009;SDS011;63564;46.840;18.336;2022-10-13T10:37:49;13.83;;;8.30;;
75009;SDS011;63564;46.840;18.336;2022-10-13T10:44:31;15.45;;;7.95;;
75009;SDS011;63564;46.840;18.336;2022-10-13T10:47:36;14.73;;;8.98;;
75009;SDS011;63564;46.840;18.336;2022-10-13T10:50:41;14.13;;;8.33;;
75009;SDS011;63564;46.840;18.336;2022-10-13T10:53:51;15.98;;;9.18;;
75009;SDS011;63564;46.840;18.336;2022-10-13T10:57:07;15.57;;;8.93;;
75009;SDS011;63564;46.840;18.336;2022-10-13T11:00:15;13.20;;;8.03;;
75009;SDS011;63564;46.840;18.336;2022-10-13T11:03:33;14.20;;;7.97;;
75009;SDS011;63564;46.840;18.336;2022-10-13T11:06:38;13.77;;;8.63;;
75009;SDS011;63564;46.840;18.336;2022-10-13T11:15:51;14.75;;;8.88;;
75009;SDS011;63564;46.840;18.336;2022-10-13T11:18:59;14.77;;;8.67;;
75009;SDS011;63564;46.840;18.336;2022-10-13T11:22:10;16.33;;;8.20;;
75009;SDS011;63564;46.840;18.336;2022-10-13T11:31:52;15.00;;;8.60;;
75009;SDS011;63564;46.840;18.336;2022-10-13T11:38:14;14.53;;;7.80;;
75009;SDS011;63564;46.840;18.336;2022-10-13T11:41:34;14.43;;;8.30;;
75009;SDS011;63564;46.840;18.336;2022-10-13T11:54:49;15.77;;;8.03;;
75009;SDS011;63564;46.840;18.336;2022-10-13T12:01:31;16.17;;;8.57;;
75009;SDS011;63564;46.840;18.336;2022-10-13T12:04:31;15.67;;;8.13;;
75009;SDS011;63564;46.840;18.336;2022-10-13T12:07:33;13.87;;;8.53;;
75009;SDS011;63564;46.840;18.336;2022-10-13T12:10:35;15.60;;;9.30;;
75009;SDS011;63564;46.840;18.336;2022-10-13T12:13:37;17.25;;;8.45;;
75009;SDS011;63564;46.840;18.336;2022-10-13T12:16:37;14.03;;;8.37;;
75009;SDS011;63564;46.840;18.336;2022-10-13T12:19:54;13.75;;;8.23;;
75009;SDS011;63564;46.840;18.336;2022-10-13T12:22:56;13.40;;;8.57;;
75009;SDS011;63564;46.840;18.336;2022-10-13T12:25:57;17.37;;;8.67;;
75009;SDS011;63564;46.840;18.336;2022-10-13T12:29:01;15.57;;;8.85;;
75009;SDS011;63564;46.840;18.336;2022-10-13T12:32:16;15.20;;;8.60;;
75009;SDS011;63564;46.840;18.336;2022-10-13T12:35:24;15.47;;;8.83;;
75009;SDS011;63564;46.840;18.336;2022-10-13T12:38:26;13.57;;;8.18;;
75009;SDS011;63564;46.840;18.336;2022-10-13T12:41:28;15.35;;;8.60;;
75009;SDS011;63564;46.840;18.336;2022-10-13T12:44:31;16.33;;;9.30;;
75009;SDS011;63564;46.840;18.336;2022-10-13T12:47:36;14.80;;;8.60;;
75009;SDS011;63564;46.840;18.336;2022-10-13T12:50:43;15.48;;;8.68;;
75009;SDS011;63564;46.840;18.336;2022-10-13T12:53:44;16.88;;;8.68;;
75009;SDS011;63564;46.840;18.336;2022-10-13T12:56:45;15.37;;;9.00;;
75009;SDS011;63564;46.840;18.336;2022-10-13T12:59:46;13.77;;;8.60;;
75009;SDS011;63564;46.840;18.336;2022-10-13T13:09:25;16.15;;;8.45;;
75009;SDS011;63564;46.840;18.336;2022-10-13T13:12:29;15.68;;;8.25;;
75009;SDS011;63564;46.840;18.336;2022-10-13T13:15:31;13.90;;;7.90;;
75009;SDS011;63564;46.840;18.336;2022-10-13T13:18:37;16.00;;;8.07;;
75009;SDS011;63564;46.840;18.336;2022-10-13T13:21:40;13.88;;;8.68;;
75009;SDS011;63564;46.840;18.336;2022-10-13T13:24:41;14.47;;;8.70;;
75009;SDS011;63564;46.840;18.336;2022-10-13T13:27:41;15.10;;;8.70;;
75009;SDS011;63564;46.840;18.336;2022-10-13T13:30:42;14.77;;;8.27;;
75009;SDS011;63564;46.840;18.336;2022-10-13T13:33:42;19.80;;;8.50;;
75009;SDS011;63564;46.840;18.336;2022-10-13T13:36:43;14.07;;;8.20;;
75009;SDS011;63564;46.840;18.336;2022-10-13T13:39:43;21.33;;;8.40;;
75009;SDS011;63564;46.840;18.336;2022-10-13T13:42:44;15.23;;;8.23;;
75009;SDS011;63564;46.840;18.336;2022-10-13T13:45:44;14.15;;;7.82;;
75009;SDS011;63564;46.840;18.336;2022-10-13T13:48:45;14.13;;;8.50;;
75009;SDS011;63564;46.840;18.336;2022-10-13T13:51:45;14.07;;;8.27;;
75009;SDS011;63564;46.840;18.336;2022-10-13T13:54:45;16.20;;;9.43;;
75009;SDS011;63564;46.840;18.336;2022-10-13T13:57:46;16.00;;;10.60;;
75009;SDS011;63564;46.840;18.336;2022-10-13T14:00:47;15.53;;;9.43;;
75009;SDS011;63564;46.840;18.336;2022-10-13T14:03:47;17.48;;;9.65;;
75009;SDS011;63564;46.840;18.336;2022-10-13T14:06:48;15.40;;;8.67;;
75009;SDS011;63564;46.840;18.336;2022-10-13T14:09:49;14.27;;;8.67;;
75009;SDS011;63564;46.840;18.336;2022-10-13T14:12:50;18.55;;;8.80;;
75009;SDS011;63564;46.840;18.336;2022-10-13T14:15:57;16.70;;;9.33;;
75009;SDS011;63564;46.840;18.336;2022-10-13T14:18:58;15.00;;;8.45;;
75009;SDS011;63564;46.840;18.336;2022-10-13T14:21:59;17.27;;;9.40;;
75009;SDS011;63564;46.840;18.336;2022-10-13T14:25:00;15.10;;;9.32;;
75009;SDS011;63564;46.840;18.336;2022-10-13T14:28:00;15.93;;;9.13;;
75009;SDS011;63564;46.840;18.336;2022-10-13T14:31:04;16.07;;;8.83;;
75009;SDS011;63564;46.840;18.336;2022-10-13T14:34:05;14.45;;;8.70;;
75009;SDS011;63564;46.840;18.336;2022-10-13T14:37:06;16.80;;;9.60;;
75009;SDS011;63564;46.840;18.336;2022-10-13T14:40:06;14.70;;;9.00;;
75009;SDS011;63564;46.840;18.336;2022-10-13T14:43:07;16.13;;;9.23;;
75009;SDS011;63564;46.840;18.336;2022-10-13T14:46:08;9.73;;;5.43;;
75009;SDS011;63564;46.840;18.336;2022-10-13T14:49:09;15.57;;;9.40;;
75009;SDS011;63564;46.840;18.336;2022-10-13T14:52:10;15.37;;;9.40;;
75009;SDS011;63564;46.840;18.336;2022-10-13T14:55:10;16.17;;;9.40;;
75009;SDS011;63564;46.840;18.336;2022-10-13T14:58:10;16.33;;;9.47;;
75009;SDS011;63564;46.840;18.336;2022-10-13T15:01:11;14.40;;;9.00;;
75009;SDS011;63564;46.840;18.336;2022-10-13T15:04:11;18.53;;;9.90;;
75009;SDS011;63564;46.840;18.336;2022-10-13T15:07:12;16.37;;;10.03;;
75009;SDS011;63564;46.840;18.336;2022-10-13T15:10:12;19.53;;;10.43;;
75009;SDS011;63564;46.840;18.336;2022-10-13T15:13:13;15.10;;;9.82;;
75009;SDS011;63564;46.840;18.336;2022-10-13T15:16:23;17.67;;;9.70;;
75009;SDS011;63564;46.840;18.336;2022-10-13T15:19:26;15.03;;;8.90;;
75009;SDS011;63564;46.840;18.336;2022-10-13T15:22:27;14.13;;;9.30;;
75009;SDS011;63564;46.840;18.336;2022-10-13T15:25:27;18.27;;;9.13;;
75009;SDS011;63564;46.840;18.336;2022-10-13T15:28:29;16.50;;;9.43;;
75009;SDS011;63564;46.840;18.336;2022-10-13T15:31:33;16.08;;;9.20;;
75009;SDS011;63564;46.840;18.336;2022-10-13T15:34:34;17.70;;;9.60;;
75009;SDS011;63564;46.840;18.336;2022-10-13T15:37:34;16.63;;;8.43;;
75009;SDS011;63564;46.840;18.336;2022-10-13T15:40:37;17.37;;;9.13;;
75009;SDS011;63564;46.840;18.336;2022-10-13T15:43:39;17.48;;;9.68;;
75009;SDS011;63564;46.840;18.336;2022-10-13T15:46:39;14.93;;;9.23;;
75009;SDS011;63564;46.840;18.336;2022-10-13T15:49:39;16.37;;;9.27;;
75009;SDS011;63564;46.840;18.336;2022-10-13T15:52:40;17.43;;;9.77;;
75009;SDS011;63564;46.840;18.336;2022-10-13T15:55:40;20.37;;;10.70;;
75009;SDS011;63564;46.840;18.336;2022-10-13T15:58:41;18.83;;;10.90;;
75009;SDS011;63564;46.840;18.336;2022-10-13T16:01:41;17.93;;;10.10;;
75009;SDS011;63564;46.840;18.336;2022-10-13T16:04:42;18.83;;;9.97;;
75009;SDS011;63564;46.840;18.336;2022-10-13T16:07:42;19.90;;;9.40;;
75009;SDS011;63564;46.840;18.336;2022-10-13T16:10:43;18.52;;;9.45;;
75009;SDS011;63564;46.840;18.336;2022-10-13T16:13:47;17.43;;;9.23;;
75009;SDS011;63564;46.840;18.336;2022-10-13T16:16:49;19.30;;;9.25;;
75009;SDS011;63564;46.840;18.336;2022-10-13T16:19:49;22.40;;;9.23;;
75009;SDS011;63564;46.840;18.336;2022-10-13T16:22:49;25.27;;;9.67;;
75009;SDS011;63564;46.840;18.336;2022-10-13T16:25:51;29.52;;;9.85;;
75009;SDS011;63564;46.840;18.336;2022-10-13T16:28:55;19.80;;;9.53;;
75009;SDS011;63564;46.840;18.336;2022-10-13T16:31:56;20.87;;;9.73;;
75009;SDS011;63564;46.840;18.336;2022-10-13T16:34:57;21.00;;;9.82;;
75009;SDS011;63564;46.840;18.336;2022-10-13T16:37:57;22.77;;;9.70;;
75009;SDS011;63564;46.840;18.336;2022-10-13T16:40:57;19.33;;;9.57;;
75009;SDS011;63564;46.840;18.336;2022-10-13T16:44:01;22.63;;;9.77;;
75009;SDS011;63564;46.840;18.336;2022-10-13T16:47:02;24.10;;;10.40;;
75009;SDS011;63564;46.840;18.336;2022-10-13T16:50:04;19.17;;;10.18;;
75009;SDS011;63564;46.840;18.336;2022-10-13T16:53:08;21.80;;;10.53;;
75009;SDS011;63564;46.840;18.336;2022-10-13T16:56:09;22.00;;;11.18;;
75009;SDS011;63564;46.840;18.336;2022-10-13T16:59:10;20.93;;;10.63;;
75009;SDS011;63564;46.840;18.336;2022-10-13T17:02:12;23.75;;;10.95;;
75009;SDS011;63564;46.840;18.336;2022-10-13T17:05:13;20.17;;;11.15;;
75009;SDS011;63564;46.840;18.336;2022-10-13T17:08:13;24.10;;;11.30;;
75009;SDS011;63564;46.840;18.336;2022-10-13T17:11:15;18.25;;;10.30;;
75009;SDS011;63564;46.840;18.336;2022-10-13T17:14:17;21.10;;;10.93;;
75009;SDS011;63564;46.840;18.336;2022-10-13T17:17:17;24.83;;;12.18;;
75009;SDS011;63564;46.840;18.336;2022-10-13T17:20:18;23.23;;;12.00;;
75009;SDS011;63564;46.840;18.336;2022-10-13T17:23:18;21.37;;;11.37;;
75009;SDS011;63564;46.840;18.336;2022-10-13T17:26:19;23.77;;;12.27;;
75009;SDS011;63564;46.840;18.336;2022-10-13T17:29:20;24.80;;;12.35;;
75009;SDS011;63564;46.840;18.336;2022-10-13T17:32:20;23.67;;;12.83;;
75009;SDS011;63564;46.840;18.336;2022-10-13T17:35:21;22.77;;;12.37;;
75009;SDS011;63564;46.840;18.336;2022-10-13T17:38:22;27.70;;;14.80;;
75009;SDS011;63564;46.840;18.336;2022-10-13T17:41:22;28.20;;;15.03;;
75009;SDS011;63564;46.840;18.336;2022-10-13T17:44:23;25.17;;;14.60;;
75009;SDS011;63564;46.840;18.336;2022-10-13T17:47:23;25.97;;;14.13;;
75009;SDS011;63564;46.840;18.336;2022-10-13T17:50:24;24.60;;;13.43;;
75009;SDS011;63564;46.840;18.336;2022-10-13T17:53:25;23.55;;;13.20;;
75009;SDS011;63564;46.840;18.336;2022-10-13T17:56:25;26.23;;;13.77;;
75009;SDS011;63564;46.840;18.336;2022-10-13T17:59:26;25.95;;;13.27;;
75009;SDS011;63564;46.840;18.336;2022-10-13T18:02:27;23.93;;;12.97;;
75009;SDS011;63564;46.840;18.336;2022-10-13T18:05:27;30.17;;;16.13;;
75009;SDS011;63564;46.840;18.336;2022-10-13T18:08:27;31.83;;;16.03;;
75009;SDS011;63564;46.840;18.336;2022-10-13T18:11:28;32.53;;;17.07;;
75009;SDS011;63564;46.840;18.336;2022-10-13T18:14:28;33.03;;;17.93;;
75009;SDS011;63564;46.840;18.336;2022-10-13T18:17:28;30.17;;;16.48;;
75009;SDS011;63564;46.840;18.336;2022-10-13T18:20:29;29.33;;;16.23;;
75009;SDS011;63564;46.840;18.336;2022-10-13T18:23:31;27.87;;;15.40;;
75009;SDS011;63564;46.840;18.336;2022-10-13T18:26:32;27.98;;;14.43;;
75009;SDS011;63564;46.840;18.336;2022-10-13T18:29:34;26.67;;;15.57;;
75009;SDS011;63564;46.840;18.336;2022-10-13T18:32:35;30.43;;;15.63;;
75009;SDS011;63564;46.840;18.336;2022-10-13T18:35:35;30.10;;;14.83;;
75009;SDS011;63564;46.840;18.336;2022-10-13T18:38:35;34.13;;;16.27;;
75009;SDS011;63564;46.840;18.336;2022-10-13T18:41:36;28.83;;;16.77;;
75009;SDS011;63564;46.840;18.336;2022-10-13T18:44:37;30.90;;;17.42;;
75009;SDS011;63564;46.840;18.336;2022-10-13T18:47:37;32.42;;;17.10;;
75009;SDS011;63564;46.840;18.336;2022-10-13T18:50:38;31.70;;;16.23;;
75009;SDS011;63564;46.840;18.336;2022-10-13T18:53:39;30.13;;;15.13;;
75009;SDS011;63564;46.840;18.336;2022-10-13T18:56:40;27.08;;;14.48;;
75009;SDS011;63564;46.840;18.336;2022-10-13T18:59:41;29.00;;;14.80;;